Time;durP1;ratioP1;P1;durP2;ratioP2;P2;SDS_P1;SDS_P2;PMS_P1;PMS_P2;Temp;Humidity;BMP_temperature;BMP_pressure;BME280_temperature;BME280_humidity;BME280_pressure;Samples;Min_cycle;Max_cycle;Signal;HPM_P1;HPM_P2
2021/09/15 00:00:34;;;;;;;13.60;12.20;;;19.90;99.90;;;;;;5068724;28;20033;-87
2021/09/15 00:03:03;;;;;;;13.20;10.35;;;19.90;99.90;;;;;;5070723;28;20806;-87
2021/09/15 00:05:32;;;;;;;11.23;9.90;;;19.90;99.90;;;;;;5072720;28;20027;-87
2021/09/15 00:08:04;;;;;;;10.23;9.15;;;19.90;99.90;;;;;;5068382;28;20031;-86
2021/09/15 00:10:41;;;;;;;12.65;9.25;;;19.90;99.90;;;;;;5063270;28;20028;-87
2021/09/15 00:13:11;;;;;;;9.10;7.60;;;19.90;99.90;;;;;;5074022;28;20127;-87
2021/09/15 00:15:37;;;;;;;10.48;7.75;;;19.90;99.90;;;;;;5065392;28;20444;-86
2021/09/15 00:18:06;;;;;;;10.93;8.40;;;19.90;99.90;;;;;;5068078;28;20036;-87
2021/09/15 00:20:33;;;;;;;11.40;9.18;;;19.90;99.90;;;;;;5071984;28;20032;-87
2021/09/15 00:23:03;;;;;;;9.73;8.73;;;19.90;99.90;;;;;;5060210;28;20068;-87
2021/09/15 00:25:33;;;;;;;10.30;9.27;;;19.90;99.90;;;;;;5072309;28;20495;-87
2021/09/15 00:28:02;;;;;;;9.30;8.32;;;19.90;99.90;;;;;;5068341;28;20032;-88
2021/09/15 00:30:35;;;;;;;10.05;8.23;;;19.80;99.90;;;;;;5064154;28;20020;-87
2021/09/15 00:33:04;;;;;;;9.52;8.55;;;19.80;99.90;;;;;;5073059;28;20028;-87
2021/09/15 00:35:34;;;;;;;8.75;7.85;;;19.80;99.90;;;;;;5082192;28;20031;-87
2021/09/15 00:38:12;;;;;;;8.65;7.80;;;19.70;99.90;;;;;;5067846;28;20028;-87
2021/09/15 00:40:58;;;;;;;9.70;7.55;;;19.70;99.90;;;;;;5092337;28;20012;-87
2021/09/15 00:43:28;;;;;;;8.07;7.22;;;19.70;99.90;;;;;;5058094;28;20468;-87
2021/09/15 00:46:01;;;;;;;8.35;7.47;;;19.70;99.90;;;;;;5067107;28;20035;-87
2021/09/15 00:48:32;;;;;;;8.98;7.78;;;19.70;99.90;;;;;;5064334;28;20064;-88
2021/09/15 00:51:01;;;;;;;9.57;8.00;;;19.70;99.90;;;;;;5057586;28;20503;-87
2021/09/15 00:53:28;;;;;;;8.77;7.85;;;19.70;99.90;;;;;;5062786;28;20059;-86
2021/09/15 00:56:05;;;;;;;9.70;7.63;;;19.60;99.90;;;;;;5067918;28;20078;-87
2021/09/15 00:58:34;;;;;;;8.75;7.88;;;19.50;99.90;;;;;;5057344;28;20044;-87
2021/09/15 01:01:05;;;;;;;8.80;7.50;;;19.60;99.90;;;;;;5074225;28;20028;-88
2021/09/15 01:03:37;;;;;;;11.00;8.27;;;19.50;99.90;;;;;;5060383;28;20056;-88
2021/09/15 01:06:09;;;;;;;8.68;7.78;;;19.50;99.90;;;;;;5064251;28;20098;-88
2021/09/15 01:08:41;;;;;;;10.57;8.70;;;19.50;99.90;;;;;;5055133;28;20021;-88
2021/09/15 01:11:13;;;;;;;8.23;7.22;;;19.40;99.90;;;;;;5070417;28;20453;-88
2021/09/15 01:13:46;;;;;;;8.50;7.65;;;19.50;99.90;;;;;;5062171;28;20021;-87
2021/09/15 01:16:16;;;;;;;8.52;7.57;;;19.40;99.90;;;;;;5061931;28;20033;-87
2021/09/15 01:18:45;;;;;;;8.50;7.53;;;19.30;99.90;;;;;;5069389;28;20020;-88
2021/09/15 01:21:17;;;;;;;8.45;7.50;;;19.20;99.90;;;;;;5056773;28;20077;-87
2021/09/15 01:23:47;;;;;;;8.10;6.88;;;19.30;99.90;;;;;;5065067;28;20041;-87
2021/09/15 01:26:22;;;;;;;8.82;7.43;;;19.20;99.90;;;;;;5065915;28;20036;-87
2021/09/15 01:28:58;;;;;;;8.20;7.40;;;19.20;99.90;;;;;;5056834;28;20044;-86
2021/09/15 01:31:24;;;;;;;8.68;7.53;;;19.10;99.90;;;;;;5068125;28;20028;-87
2021/09/15 01:34:00;;;;;;;7.70;6.88;;;19.00;99.90;;;;;;5062194;28;20032;-87
2021/09/15 01:36:32;;;;;;;10.00;7.60;;;19.00;99.90;;;;;;5059455;28;20035;-87
2021/09/15 01:39:01;;;;;;;8.10;6.75;;;19.00;99.90;;;;;;5054306;28;20097;-87
2021/09/15 01:41:33;;;;;;;8.20;7.32;;;18.90;99.90;;;;;;5066779;28;20183;-87
2021/09/15 01:44:06;;;;;;;9.43;7.47;;;18.90;99.90;;;;;;5063419;28;20032;-87
2021/09/15 01:46:35;;;;;;;7.60;6.80;;;18.90;99.90;;;;;;5058784;28;20309;-87
2021/09/15 01:49:05;;;;;;;10.23;6.57;;;18.80;99.90;;;;;;5069722;28;20025;-87
2021/09/15 01:51:39;;;;;;;8.05;7.18;;;18.80;99.90;;;;;;5052363;28;20072;-87
2021/09/15 01:54:15;;;;;;;9.63;7.40;;;18.80;99.90;;;;;;5066384;28;20434;-87
2021/09/15 01:56:48;;;;;;;10.02;7.55;;;18.80;99.90;;;;;;5074824;28;20052;-87
2021/09/15 01:59:20;;;;;;;7.68;6.85;;;18.70;99.90;;;;;;5057142;28;20380;-87
2021/09/15 02:01:47;;;;;;;9.15;7.63;;;18.60;99.90;;;;;;5065867;28;20028;-87
2021/09/15 02:04:19;;;;;;;8.77;7.43;;;18.60;99.90;;;;;;5068719;28;20051;-86
2021/09/15 02:06:50;;;;;;;8.95;6.93;;;18.60;99.90;;;;;;5060316;28;20047;-87
2021/09/15 02:09:22;;;;;;;8.50;7.20;;;18.60;99.90;;;;;;5057559;28;20099;-87
2021/09/15 02:11:51;;;;;;;7.53;6.80;;;18.60;99.90;;;;;;5067893;28;20031;-87
2021/09/15 02:14:19;;;;;;;8.10;7.25;;;18.50;99.90;;;;;;5068824;28;20024;-87
2021/09/15 02:16:53;;;;;;;9.35;7.63;;;18.60;99.90;;;;;;5078264;28;20031;-87
2021/09/15 02:19:20;;;;;;;8.80;7.30;;;18.60;99.90;;;;;;5073494;28;20108;-87
2021/09/15 02:21:54;;;;;;;7.78;6.93;;;18.60;99.90;;;;;;5065888;28;20023;-87
2021/09/15 02:24:22;;;;;;;8.85;7.15;;;18.60;99.90;;;;;;5068417;28;20467;-87
2021/09/15 02:26:51;;;;;;;7.95;7.15;;;18.50;99.90;;;;;;5073600;28;20028;-87
2021/09/15 02:29:25;;;;;;;8.45;7.47;;;18.50;99.90;;;;;;5060379;28;20024;-86
2021/09/15 02:32:05;;;;;;;11.13;8.52;;;18.60;99.90;;;;;;5068249;28;20086;-87
2021/09/15 02:34:32;;;;;;;10.35;8.13;;;18.60;99.90;;;;;;5070446;28;20139;-87
2021/09/15 02:37:03;;;;;;;9.40;8.40;;;18.60;99.90;;;;;;5059839;28;20037;-88
2021/09/15 02:39:33;;;;;;;8.93;8.02;;;18.70;99.90;;;;;;5070729;28;20055;-87
2021/09/15 02:42:05;;;;;;;8.68;7.78;;;18.70;99.90;;;;;;5066383;28;20360;-88
2021/09/15 02:44:37;;;;;;;9.40;8.23;;;18.70;99.90;;;;;;5080321;28;20132;-87
2021/09/15 02:47:10;;;;;;;8.48;7.60;;;18.70;99.90;;;;;;5077557;28;20032;-87
2021/09/15 02:49:43;;;;;;;8.43;7.38;;;18.80;99.90;;;;;;5067362;28;20024;-87
2021/09/15 02:52:10;;;;;;;8.90;8.00;;;18.70;99.90;;;;;;5069405;28;20060;-87
2021/09/15 02:54:36;;;;;;;8.38;7.47;;;18.70;99.90;;;;;;5076050;28;20127;-88
2021/09/15 02:57:09;;;;;;;8.20;7.15;;;18.70;99.90;;;;;;5064971;28;20057;-87
2021/09/15 02:59:38;;;;;;;9.38;7.97;;;18.80;99.90;;;;;;5073762;28;20025;-87
2021/09/15 03:02:07;;;;;;;8.38;7.47;;;18.80;99.90;;;;;;5070755;28;20114;-87
2021/09/15 03:04:45;;;;;;;9.35;7.82;;;18.80;99.90;;;;;;5083669;28;20024;-87
2021/09/15 03:07:11;;;;;;;8.95;8.00;;;18.80;99.90;;;;;;5095388;28;20020;-87
2021/09/15 03:09:40;;;;;;;8.75;7.50;;;18.80;99.90;;;;;;5066914;28;20471;-88
2021/09/15 03:12:10;;;;;;;9.45;8.18;;;18.80;99.90;;;;;;5069211;28;20051;-88
2021/09/15 03:14:42;;;;;;;10.10;7.75;;;18.90;99.90;;;;;;5075883;28;20086;-87
2021/09/15 03:17:11;;;;;;;10.55;7.70;;;18.90;99.90;;;;;;5082806;28;20036;-87
2021/09/15 03:19:37;;;;;;;8.73;7.22;;;18.90;99.90;;;;;;5074495;28;20112;-87
2021/09/15 03:22:07;;;;;;;9.75;8.27;;;18.90;99.90;;;;;;5071472;28;20028;-86
2021/09/15 03:24:40;;;;;;;8.13;6.90;;;18.90;99.90;;;;;;5065616;28;20680;-88
2021/09/15 03:27:09;;;;;;;8.52;7.32;;;18.90;99.90;;;;;;5062584;28;20350;-87
2021/09/15 03:29:38;;;;;;;8.75;7.70;;;18.90;99.90;;;;;;5073124;28;20104;-87
2021/09/15 03:32:09;;;;;;;8.15;7.03;;;18.90;99.90;;;;;;5058805;28;20115;-87
2021/09/15 03:34:36;;;;;;;7.93;6.97;;;19.00;99.90;;;;;;5073866;28;20028;-87
2021/09/15 03:37:08;;;;;;;7.72;6.93;;;18.90;99.90;;;;;;5059910;28;20068;-88
2021/09/15 03:39:35;;;;;;;9.25;7.53;;;19.00;99.90;;;;;;5066171;28;20020;-86
2021/09/15 03:42:05;;;;;;;7.95;7.15;;;19.00;99.90;;;;;;5068403;28;20418;-87
2021/09/15 03:44:35;;;;;;;8.45;7.20;;;19.00;99.90;;;;;;5072619;28;20507;-87
2021/09/15 03:47:01;;;;;;;8.18;7.38;;;19.00;99.90;;;;;;5061749;28;20032;-87
2021/09/15 03:49:30;;;;;;;8.38;7.43;;;18.90;99.90;;;;;;5078620;28;20047;-86
2021/09/15 03:52:05;;;;;;;9.75;8.07;;;18.90;99.90;;;;;;5068977;28;20021;-87
2021/09/15 03:54:39;;;;;;;8.75;7.85;;;18.90;99.90;;;;;;5072682;28;20032;-87
2021/09/15 03:57:05;;;;;;;10.60;8.18;;;18.90;99.90;;;;;;5078868;28;20040;-87
2021/09/15 03:59:34;;;;;;;8.88;7.97;;;19.00;99.90;;;;;;5055178;28;20028;-86
2021/09/15 04:02:00;;;;;;;9.98;7.63;;;18.90;99.90;;;;;;5068347;28;20047;-87
2021/09/15 04:04:30;;;;;;;10.65;7.63;;;18.90;99.90;;;;;;5064470;28;20073;-87
2021/09/15 04:07:02;;;;;;;8.27;7.45;;;18.90;99.90;;;;;;5076252;28;20024;-87
2021/09/15 04:09:28;;;;;;;8.10;6.93;;;18.90;99.90;;;;;;5090498;28;20040;-87
2021/09/15 04:11:54;;;;;;;8.55;7.43;;;18.90;99.90;;;;;;5067584;28;20468;-87
2021/09/15 04:14:24;;;;;;;9.75;7.30;;;18.90;99.90;;;;;;5065341;28;20081;-87
2021/09/15 04:16:51;;;;;;;9.30;7.50;;;18.90;99.90;;;;;;5092539;28;20070;-87
2021/09/15 04:19:17;;;;;;;8.50;7.38;;;18.90;99.90;;;;;;5062121;28;20476;-87
2021/09/15 04:21:43;;;;;;;8.25;6.97;;;18.90;99.90;;;;;;5088793;28;20033;-86
2021/09/15 04:32:32;;;;;;;7.88;7.07;;;18.80;99.90;;;;;;5091786;28;20043;-87
2021/09/15 04:34:58;;;;;;;9.07;7.57;;;18.80;99.90;;;;;;5061823;28;20029;-88
2021/09/15 04:37:28;;;;;;;8.18;7.15;;;18.80;99.90;;;;;;5091044;28;20545;-88
2021/09/15 04:40:00;;;;;;;8.93;6.85;;;18.80;99.90;;;;;;5067725;28;20033;-87
2021/09/15 04:42:31;;;;;;;7.63;6.82;;;18.80;99.90;;;;;;5065084;28;20036;-88
2021/09/15 04:45:04;;;;;;;8.35;7.25;;;18.80;99.90;;;;;;5074921;28;20028;-87
2021/09/15 04:47:34;;;;;;;8.55;7.30;;;18.80;99.90;;;;;;5064778;28;20025;-88
2021/09/15 04:50:04;;;;;;;8.20;7.28;;;18.80;99.90;;;;;;5068860;28;20025;-86
2021/09/15 04:52:31;;;;;;;9.45;7.60;;;18.80;99.90;;;;;;5071909;28;20032;-86
2021/09/15 04:54:58;;;;;;;8.35;7.20;;;18.70;99.90;;;;;;5061662;28;20025;-87
2021/09/15 04:57:29;;;;;;;7.85;7.05;;;18.70;99.90;;;;;;5073459;28;20029;-87
2021/09/15 05:00:02;;;;;;;8.30;7.30;;;18.80;99.90;;;;;;5049754;28;20040;-88
2021/09/15 05:02:35;;;;;;;7.93;6.65;;;18.80;99.90;;;;;;5061019;28;20060;-87
2021/09/15 05:05:05;;;;;;;8.50;6.95;;;18.80;99.90;;;;;;5067042;28;20511;-87
2021/09/15 05:07:36;;;;;;;7.93;7.13;;;18.80;99.90;;;;;;5054643;28;20021;-87
2021/09/15 05:10:05;;;;;;;8.52;7.43;;;18.80;99.90;;;;;;5065574;28;20045;-87
2021/09/15 05:12:32;;;;;;;9.23;7.75;;;18.80;99.90;;;;;;5060618;28;20025;-86
2021/09/15 05:15:04;;;;;;;8.90;7.20;;;18.90;99.90;;;;;;5071324;28;20024;-87
2021/09/15 05:17:30;;;;;;;7.45;6.65;;;18.90;99.90;;;;;;5060677;28;20067;-87
2021/09/15 05:19:57;;;;;;;8.27;7.40;;;18.90;99.90;;;;;;5065913;28;20408;-87
2021/09/15 05:22:27;;;;;;;7.65;6.85;;;18.90;99.90;;;;;;5067554;28;20032;-87
2021/09/15 05:24:59;;;;;;;8.73;7.15;;;18.90;99.90;;;;;;5042322;28;20029;-87
2021/09/15 05:27:32;;;;;;;8.23;7.35;;;18.80;99.90;;;;;;5069559;28;20040;-86
2021/09/15 05:30:02;;;;;;;8.20;7.00;;;18.90;99.90;;;;;;5064828;28;20017;-86
2021/09/15 05:32:29;;;;;;;8.10;7.22;;;18.90;99.90;;;;;;5060793;28;20029;-88
2021/09/15 05:34:55;;;;;;;9.00;7.28;;;18.80;99.90;;;;;;5063778;28;20121;-88
2021/09/15 05:37:21;;;;;;;8.35;6.82;;;18.90;99.90;;;;;;5069922;28;20041;-87
2021/09/15 05:39:54;;;;;;;8.35;7.05;;;18.90;99.90;;;;;;5062058;28;20378;-88
2021/09/15 05:42:29;;;;;;;10.38;8.05;;;18.90;99.90;;;;;;5061179;28;20465;-88
2021/09/15 05:45:06;;;;;;;8.85;7.22;;;18.90;99.90;;;;;;5055503;28;20028;-90
2021/09/15 05:47:32;;;;;;;8.65;7.38;;;19.00;99.90;;;;;;5046452;28;20074;-90
2021/09/15 05:50:05;;;;;;;8.95;7.20;;;18.90;99.90;;;;;;5066407;28;20025;-89
2021/09/15 05:52:34;;;;;;;9.23;8.20;;;18.90;99.90;;;;;;5069689;28;20051;-90
2021/09/15 05:55:04;;;;;;;9.68;7.88;;;18.80;99.90;;;;;;5057488;28;20071;-91
2021/09/15 05:57:37;;;;;;;8.65;7.75;;;18.70;99.90;;;;;;5068082;28;20037;-90
2021/09/15 06:00:08;;;;;;;8.70;7.75;;;18.70;99.90;;;;;;5065008;28;20031;-90
2021/09/15 06:02:40;;;;;;;9.65;8.18;;;18.70;99.90;;;;;;5059432;28;20493;-90
2021/09/15 06:05:07;;;;;;;10.93;8.17;;;18.70;99.90;;;;;;5070191;28;20017;-90
2021/09/15 06:07:37;;;;;;;9.18;8.27;;;18.60;99.90;;;;;;5060259;28;20024;-92
2021/09/15 06:10:03;;;;;;;9.55;7.95;;;18.60;99.90;;;;;;5063407;28;20031;-90
2021/09/15 06:12:38;;;;;;;9.95;8.95;;;18.60;99.90;;;;;;5067732;28;20086;-90
2021/09/15 06:15:05;;;;;;;10.93;8.35;;;18.60;99.90;;;;;;5057396;28;20059;-90
2021/09/15 06:17:45;;;;;;;9.45;8.30;;;18.60;99.90;;;;;;5067960;28;20079;-90
2021/09/15 06:20:15;;;;;;;9.63;7.90;;;18.60;99.90;;;;;;5064949;28;20028;-91
2021/09/15 06:22:42;;;;;;;9.65;8.38;;;18.60;99.90;;;;;;5057961;28;20056;-90
2021/09/15 06:25:15;;;;;;;10.35;9.25;;;18.70;99.90;;;;;;5070866;28;20021;-91
2021/09/15 06:27:50;;;;;;;9.95;8.82;;;18.60;99.90;;;;;;5060756;28;20032;-91
2021/09/15 06:30:25;;;;;;;10.32;9.32;;;18.70;99.90;;;;;;5061347;28;20025;-89
2021/09/15 06:32:54;;;;;;;11.45;9.95;;;18.60;99.90;;;;;;5069831;28;20055;-90
2021/09/15 06:35:21;;;;;;;11.50;9.70;;;18.60;99.90;;;;;;5053580;28;20126;-90
2021/09/15 06:37:48;;;;;;;10.43;9.40;;;18.60;99.90;;;;;;5061781;28;20048;-90
2021/09/15 06:40:15;;;;;;;10.73;9.23;;;18.60;99.90;;;;;;5074755;28;20020;-90
2021/09/15 06:42:47;;;;;;;11.07;9.38;;;18.70;99.90;;;;;;5058250;28;20032;-91
2021/09/15 06:45:16;;;;;;;9.10;8.20;;;18.70;99.90;;;;;;5057294;28;20023;-91
2021/09/15 06:47:46;;;;;;;10.35;8.85;;;18.70;99.90;;;;;;5067551;28;20505;-90
2021/09/15 06:50:22;;;;;;;10.18;9.15;;;18.70;99.90;;;;;;5053751;28;20021;-91
2021/09/15 06:52:55;;;;;;;10.55;9.00;;;18.70;99.90;;;;;;5053812;28;20216;-89
2021/09/15 06:55:27;;;;;;;10.73;9.35;;;18.70;99.90;;;;;;5068972;28;20055;-91
2021/09/15 06:58:03;;;;;;;10.02;8.52;;;18.70;99.90;;;;;;5054561;28;20029;-89
2021/09/15 07:00:35;;;;;;;10.25;9.15;;;18.80;99.90;;;;;;5067313;28;20020;-90
2021/09/15 07:03:05;;;;;;;11.73;9.77;;;18.80;99.90;;;;;;5071715;28;20051;-89
2021/09/15 07:05:36;;;;;;;10.48;9.38;;;18.90;99.90;;;;;;5055391;28;20024;-89
2021/09/15 07:08:11;;;;;;;10.48;9.25;;;18.90;99.90;;;;;;5054658;28;20068;-88
2021/09/15 07:10:52;;;;;;;10.18;9.13;;;18.90;99.90;;;;;;5054657;28;20078;-88
2021/09/15 07:13:28;;;;;;;10.77;9.52;;;18.90;99.90;;;;;;5059952;28;20029;-88
2021/09/15 07:16:03;;;;;;;11.65;10.45;;;18.90;99.90;;;;;;5063472;28;20025;-88
2021/09/15 07:18:50;;;;;;;11.27;9.93;;;18.90;99.90;;;;;;5075756;28;20048;-89
2021/09/15 07:21:21;;;;;;;11.68;10.48;;;18.90;99.90;;;;;;5057973;28;20027;-90
2021/09/15 07:23:50;;;;;;;11.90;10.60;;;18.90;99.90;;;;;;5057724;28;20037;-89
2021/09/15 07:26:31;;;;;;;12.57;10.95;;;18.90;99.90;;;;;;5065199;28;20051;-89
2021/09/15 07:29:03;;;;;;;11.68;10.07;;;18.90;99.90;;;;;;5057916;28;20036;-90
2021/09/15 07:31:36;;;;;;;10.27;9.27;;;18.90;99.90;;;;;;5074036;28;20060;-90
2021/09/15 07:34:07;;;;;;;12.05;9.50;;;18.90;99.90;;;;;;5072644;28;20108;-90
2021/09/15 07:36:43;;;;;;;11.93;10.55;;;19.00;99.90;;;;;;5063138;28;20040;-89
2021/09/15 07:39:23;;;;;;;12.15;10.05;;;19.00;99.90;;;;;;5074044;28;20476;-90
2021/09/15 07:41:56;;;;;;;13.07;9.85;;;19.00;99.90;;;;;;5067106;28;20025;-91
2021/09/15 07:44:34;;;;;;;11.30;10.13;;;19.10;99.90;;;;;;5077527;28;20025;-89
2021/09/15 07:47:06;;;;;;;11.93;9.90;;;19.10;99.90;;;;;;5078517;28;20024;-90
2021/09/15 07:49:38;;;;;;;10.77;9.73;;;19.10;99.90;;;;;;5071474;28;20060;-91
2021/09/15 07:52:09;;;;;;;12.68;11.35;;;19.10;99.90;;;;;;5058104;28;20049;-90
2021/09/15 07:54:45;;;;;;;13.32;12.02;;;19.10;99.90;;;;;;5073193;28;20040;-90
2021/09/15 07:57:15;;;;;;;13.05;11.65;;;19.10;99.90;;;;;;5059739;28;20115;-91
2021/09/15 07:59:48;;;;;;;12.65;11.35;;;19.10;99.90;;;;;;5070361;28;20036;-91
2021/09/15 08:02:18;;;;;;;13.05;11.68;;;19.10;99.90;;;;;;5071471;28;20047;-91
2021/09/15 08:04:51;;;;;;;12.93;11.60;;;19.10;99.90;;;;;;5081027;28;20032;-90
2021/09/15 08:07:24;;;;;;;12.70;11.40;;;19.10;99.90;;;;;;5064896;28;20024;-90
2021/09/15 08:09:59;;;;;;;12.55;11.18;;;19.10;99.90;;;;;;5079795;28;20032;-90
2021/09/15 08:12:26;;;;;;;14.30;12.70;;;19.20;99.90;;;;;;5070682;28;20028;-89
2021/09/15 08:14:53;;;;;;;13.77;12.20;;;19.20;99.90;;;;;;5078527;28;20024;-89
2021/09/15 08:17:19;;;;;;;14.05;12.30;;;19.20;99.90;;;;;;5073057;28;20028;-90
2021/09/15 08:19:46;;;;;;;14.43;12.85;;;19.20;99.90;;;;;;5064849;28;20047;-91
2021/09/15 08:22:12;;;;;;;14.27;12.77;;;19.30;99.90;;;;;;5076375;28;20074;-89
2021/09/15 08:24:40;;;;;;;13.45;12.10;;;19.30;99.90;;;;;;5061857;28;20035;-89
2021/09/15 08:27:09;;;;;;;15.90;14.25;;;19.40;99.90;;;;;;5091160;28;20030;-88
2021/09/15 08:29:36;;;;;;;15.02;13.52;;;19.40;99.90;;;;;;5062283;28;20035;-88
2021/09/15 08:32:03;;;;;;;16.63;14.85;;;19.50;99.90;;;;;;5090372;28;20416;-90
2021/09/15 08:34:29;;;;;;;16.67;15.13;;;19.50;99.90;;;;;;5071871;28;20053;-88
2021/09/15 08:37:01;;;;;;;17.20;15.50;;;19.60;99.90;;;;;;5065670;28;20036;-89
2021/09/15 08:39:32;;;;;;;20.60;18.55;;;19.70;99.90;;;;;;5066069;28;20024;-89
2021/09/15 08:42:17;;;;;;;19.55;17.48;;;19.70;99.90;;;;;;5080930;28;20056;-88
2021/09/15 08:44:43;;;;;;;18.52;16.63;;;19.60;99.90;;;;;;5055939;28;20036;-88
2021/09/15 08:47:10;;;;;;;18.90;17.00;;;19.70;99.90;;;;;;5072715;28;20472;-88
2021/09/15 08:49:43;;;;;;;18.52;16.63;;;19.80;99.90;;;;;;5063656;28;20487;-90
2021/09/15 08:52:10;;;;;;;18.67;16.80;;;19.80;99.90;;;;;;5065851;28;20033;-89
2021/09/15 08:54:37;;;;;;;20.70;18.15;;;19.90;99.90;;;;;;5071887;28;20046;-88
2021/09/15 08:57:04;;;;;;;20.67;18.50;;;20.00;99.90;;;;;;5058704;28;20039;-88
2021/09/15 08:59:30;;;;;;;27.88;24.90;;;20.00;99.90;;;;;;5076250;28;20499;-88
2021/09/15 09:02:09;;;;;;;26.77;23.98;;;20.00;99.90;;;;;;5077803;28;20043;-89
2021/09/15 09:04:58;;;;;;;25.08;22.40;;;20.00;99.90;;;;;;5071670;28;20040;-88
2021/09/15 09:07:25;;;;;;;25.17;22.05;;;20.10;99.90;;;;;;5057604;28;20538;-88
2021/09/15 09:09:54;;;;;;;29.75;25.65;;;20.20;99.90;;;;;;5065192;28;20024;-89
2021/09/15 09:12:24;;;;;;;27.70;24.13;;;20.30;99.90;;;;;;5082024;28;20027;-88
2021/09/15 09:14:52;;;;;;;26.92;23.75;;;20.40;99.90;;;;;;5091361;28;20025;-89
2021/09/15 09:17:31;;;;;;;26.80;23.88;;;20.50;99.90;;;;;;5058156;28;20032;-89
2021/09/15 09:20:15;;;;;;;27.30;24.15;;;20.50;99.90;;;;;;5057162;28;20108;-88
2021/09/15 09:23:05;;;;;;;26.52;23.05;;;20.60;99.90;;;;;;5058962;28;20035;-86
2021/09/15 09:25:56;;;;;;;32.13;28.20;;;20.60;99.90;;;;;;5061631;28;20053;-88
2021/09/15 09:28:36;;;;;;;35.38;30.17;;;20.60;99.90;;;;;;5061298;28;20040;-88
2021/09/15 09:31:05;;;;;;;32.80;28.05;;;20.60;99.90;;;;;;5056491;28;20043;-87
2021/09/15 09:33:33;;;;;;;33.40;28.80;;;20.60;99.90;;;;;;5077176;28;20020;-89
2021/09/15 09:36:06;;;;;;;31.02;27.60;;;20.60;99.90;;;;;;5067444;28;20043;-88
2021/09/15 09:38:39;;;;;;;33.63;28.13;;;20.60;99.90;;;;;;5071994;28;20459;-87
2021/09/15 09:41:22;;;;;;;34.70;30.50;;;20.60;99.90;;;;;;5059151;28;20056;-89
2021/09/15 09:43:53;;;;;;;31.48;28.00;;;20.50;99.90;;;;;;5066918;28;20282;-87
2021/09/15 09:46:32;;;;;;;34.17;29.88;;;20.60;99.90;;;;;;5067545;28;20045;-87
2021/09/15 09:49:05;;;;;;;31.23;27.45;;;20.50;99.90;;;;;;5076234;28;20040;-87
2021/09/15 09:51:41;;;;;;;32.20;28.13;;;20.50;99.90;;;;;;5069122;28;20055;-88
2021/09/15 09:54:18;;;;;;;30.83;26.33;;;20.60;99.90;;;;;;5054319;28;20415;-88
2021/09/15 09:56:59;;;;;;;33.75;27.38;;;20.60;99.90;;;;;;5063223;28;20103;-88
2021/09/15 09:59:33;;;;;;;35.10;29.67;;;20.70;99.90;;;;;;5092493;28;20035;-88
2021/09/15 10:02:05;;;;;;;34.13;29.67;;;20.70;99.90;;;;;;5075023;28;20034;-86
2021/09/15 10:05:01;;;;;;;33.75;29.25;;;20.70;99.90;;;;;;5070614;28;20044;-89
2021/09/15 10:07:29;;;;;;;40.83;33.13;;;20.80;99.90;;;;;;5057910;28;20116;-88
2021/09/15 10:09:57;;;;;;;41.58;34.53;;;20.70;99.90;;;;;;5074532;28;20036;-89
2021/09/15 10:12:24;;;;;;;41.22;32.88;;;20.70;99.90;;;;;;5066894;28;20025;-89
2021/09/15 10:14:52;;;;;;;43.88;35.45;;;20.80;99.90;;;;;;5056530;28;20436;-88
2021/09/15 10:17:25;;;;;;;42.30;36.00;;;20.90;99.90;;;;;;5070087;28;20095;-88
2021/09/15 10:19:55;;;;;;;39.45;33.72;;;21.10;99.90;;;;;;5060837;28;20031;-89
2021/09/15 10:22:34;;;;;;;44.60;36.30;;;21.20;99.90;;;;;;5043352;28;20029;-88
2021/09/15 10:25:05;;;;;;;44.85;34.97;;;21.30;99.90;;;;;;5070623;28;20020;-89
2021/09/15 10:27:57;;;;;;;40.78;34.13;;;21.20;99.90;;;;;;5058721;28;20074;-88
2021/09/15 10:30:54;;;;;;;39.80;32.13;;;21.10;99.90;;;;;;5045840;28;20036;-87
2021/09/15 10:33:39;;;;;;;40.53;33.33;;;21.00;99.90;;;;;;5048753;28;20024;-87
2021/09/15 10:36:17;;;;;;;41.20;32.28;;;20.90;99.90;;;;;;5058407;28;20036;-88
2021/09/15 10:39:01;;;;;;;44.30;34.58;;;20.90;99.90;;;;;;5064901;28;20075;-87
2021/09/15 10:41:37;;;;;;;40.38;31.05;;;20.80;99.90;;;;;;5069470;28;20039;-87
2021/09/15 10:44:12;;;;;;;43.03;33.47;;;20.80;99.90;;;;;;5061831;28;20020;-88
2021/09/15 10:47:09;;;;;;;38.85;30.13;;;20.80;99.90;;;;;;5072901;28;20249;-88
2021/09/15 10:49:34;;;;;;;35.08;28.50;;;20.70;99.90;;;;;;5058586;28;20043;-87
2021/09/15 10:52:11;;;;;;;35.30;28.13;;;20.80;99.90;;;;;;5064957;28;20111;-88
2021/09/15 10:54:55;;;;;;;36.75;28.23;;;20.90;99.90;;;;;;5052515;28;20033;-88
2021/09/15 10:57:33;;;;;;;46.63;33.45;;;21.00;99.90;;;;;;5053545;28;20041;-87
2021/09/15 11:00:20;;;;;;;44.05;33.83;;;21.10;99.90;;;;;;5062828;28;20205;-88
2021/09/15 11:02:51;;;;;;;39.13;31.83;;;21.20;99.90;;;;;;5061380;28;20120;-87
2021/09/15 11:05:35;;;;;;;44.10;33.45;;;21.40;99.90;;;;;;5060273;28;20031;-87
2021/09/15 11:08:01;;;;;;;45.38;34.15;;;21.80;99.90;;;;;;5069368;28;20036;-88
2021/09/15 11:10:33;;;;;;;41.17;31.88;;;21.90;99.90;;;;;;5073307;28;20068;-87
2021/09/15 11:13:24;;;;;;;38.07;29.53;;;22.10;99.90;;;;;;5064929;28;20594;-87
2021/09/15 11:15:53;;;;;;;30.33;24.38;;;22.30;99.90;;;;;;5088119;28;20073;-87
2021/09/15 11:18:29;;;;;;;33.20;26.42;;;22.70;99.90;;;;;;5091536;28;20036;-88
2021/09/15 11:21:05;;;;;;;26.88;21.45;;;23.60;99.90;;;;;;5063662;28;20476;-87
2021/09/15 11:23:32;;;;;;;26.20;20.85;;;24.10;99.90;;;;;;5091116;28;20021;-87
2021/09/15 11:26:05;;;;;;;26.30;21.85;;;24.60;99.90;;;;;;5086028;28;20044;-87
2021/09/15 11:28:47;;;;;;;23.25;19.27;;;24.90;99.90;;;;;;5081850;28;20075;-87
2021/09/15 11:31:18;;;;;;;27.77;24.73;;;25.00;99.90;;;;;;5088797;28;20074;-88
2021/09/15 11:33:44;;;;;;;28.55;24.77;;;24.90;99.90;;;;;;5067922;28;20028;-87
2021/09/15 11:36:17;;;;;;;28.27;24.92;;;24.70;99.90;;;;;;5067024;28;20034;-88
2021/09/15 11:38:48;;;;;;;;;;;24.50;99.90;;;;;;5059313;28;20078;-87
2021/09/15 11:41:17;;;;;;;25.73;22.98;;;24.20;99.90;;;;;;5080609;28;19904;-86
2021/09/15 11:43:49;;;;;;;26.58;23.27;;;23.90;99.90;;;;;;5071859;28;20090;-87
2021/09/15 11:46:19;;;;;;;27.52;24.58;;;23.50;99.90;;;;;;5071484;28;20062;-87
2021/09/15 11:48:44;;;;;;;29.45;26.35;;;23.10;99.90;;;;;;5046841;28;20028;-87
2021/09/15 11:51:22;;;;;;;26.10;23.38;;;22.80;99.90;;;;;;5077005;28;20367;-87
2021/09/15 11:53:58;;;;;;;30.23;27.05;;;22.60;99.90;;;;;;5051222;28;20122;-88
2021/09/15 11:59:05;;;;;;;39.80;35.60;;;22.20;99.90;;;;;;5094439;28;20062;-86
2021/09/15 12:01:37;;;;;;;31.20;27.90;;;22.00;99.90;;;;;;5064816;28;20020;-86
2021/09/15 12:04:16;;;;;;;34.20;30.67;;;21.80;99.90;;;;;;5064501;28;20061;-85
2021/09/15 12:06:51;;;;;;;29.45;26.45;;;21.70;99.90;;;;;;5067026;28;20020;-86
2021/09/15 12:09:24;;;;;;;23.85;21.60;;;21.70;99.90;;;;;;5061760;28;20017;-86
2021/09/15 12:11:51;;;;;;;21.35;19.27;;;21.60;99.90;;;;;;5067280;28;20037;-86
2021/09/15 12:14:20;;;;;;;19.40;17.50;;;21.60;99.90;;;;;;5051773;28;20036;-86
2021/09/15 12:17:01;;;;;;;18.63;16.83;;;21.50;99.90;;;;;;5059843;28;20035;-86
2021/09/15 12:19:36;;;;;;;;;;;21.40;99.90;;;;;;5062797;28;20024;-87
2021/09/15 12:22:04;;;;;;;14.98;13.35;;;21.20;99.90;;;;;;5064845;28;20015;-87
2021/09/15 12:24:34;;;;;;;14.02;12.52;;;21.20;99.90;;;;;;5069116;28;20456;-87
2021/09/15 12:27:23;;;;;;;13.43;11.55;;;21.20;99.90;;;;;;5058781;28;20020;-85
2021/09/15 12:30:05;;;;;;;10.52;9.43;;;21.30;99.90;;;;;;5066362;28;20435;-87
2021/09/15 12:32:39;;;;;;;9.75;8.68;;;21.50;99.90;;;;;;5071364;28;20480;-87
2021/09/15 12:35:33;;;;;;;11.40;9.13;;;21.70;99.90;;;;;;5057401;28;20408;-86
2021/09/15 12:38:06;;;;;;;;;;;22.10;99.90;;;;;;5065837;28;20041;-86
2021/09/15 12:40:38;;;;;;;11.20;9.90;;;22.30;99.90;;;;;;5045705;28;20253;-87
2021/09/15 12:43:17;;;;;;;10.93;9.32;;;22.60;99.90;;;;;;5057550;28;20025;-87
2021/09/15 12:45:47;;;;;;;10.18;8.43;;;23.00;99.90;;;;;;5062504;28;20133;-87
2021/09/15 12:48:18;;;;;;;9.80;6.65;;;24.00;99.90;;;;;;5069376;28;20025;-87
2021/09/15 12:50:47;;;;;;;7.10;5.60;;;24.60;99.90;;;;;;5076969;28;20100;-87
2021/09/15 12:53:20;;;;;;;6.70;4.80;;;24.60;99.90;;;;;;5070819;28;20028;-87
2021/09/15 12:55:51;;;;;;;4.72;4.00;;;24.20;99.90;;;;;;5069734;28;20020;-87
2021/09/15 12:58:32;;;;;;;5.57;3.60;;;24.00;99.90;;;;;;5067793;28;20033;-86
2021/09/15 13:01:22;;;;;;;4.40;2.60;;;24.30;99.90;;;;;;5041858;28;20064;-87
2021/09/15 13:03:52;;;;;;;5.57;2.70;;;24.10;99.90;;;;;;5065927;28;20401;-87
2021/09/15 13:06:29;;;;;;;4.07;2.60;;;23.70;99.90;;;;;;5069097;28;20037;-87
2021/09/15 13:09:00;;;;;;;3.88;2.28;;;23.90;99.90;;;;;;5058474;28;20029;-87
2021/09/15 13:11:33;;;;;;;4.82;1.98;;;24.60;99.90;;;;;;5052228;28;20036;-87
2021/09/15 13:14:00;;;;;;;4.75;2.45;;;24.80;99.90;;;;;;5065728;28;20021;-86